Time;durP1;ratioP1;P1;durP2;ratioP2;P2;SDS_P1;SDS_P2;PMS_P1;PMS_P2;Temp;Humidity;BMP_temperature;BMP_pressure;BME280_temperature;BME280_humidity;BME280_pressure;Samples;Min_cycle;Max_cycle;Signal;HPM_P1;HPM_P2
2023/09/20 00:00:33;;;;;;;0.00;0.00;;;17.60;99.90;;;;;;5061013;28;20052;-78
2023/09/20 00:02:59;;;;;;;0.00;0.00;;;17.50;99.90;;;;;;5062011;28;20608;-83
2023/09/20 00:05:26;;;;;;;8.30;2.92;;;17.50;99.90;;;;;;5061715;28;20028;-78
2023/09/20 00:07:54;;;;;;;0.03;0.03;;;17.40;99.90;;;;;;5062054;28;20016;-81
2023/09/20 00:10:21;;;;;;;0.10;0.10;;;17.40;99.90;;;;;;5062585;28;20066;-79
2023/09/20 00:12:47;;;;;;;4.70;4.38;;;17.40;99.90;;;;;;5062113;28;20233;-83
2023/09/20 00:15:13;;;;;;;0.15;0.15;;;17.40;99.90;;;;;;5061356;28;20013;-80
2023/09/20 00:17:39;;;;;;;0.00;0.00;;;19.00;99.90;;;;;;5059517;28;20122;-78
2023/09/20 00:20:11;;;;;;;0.00;0.00;;;17.30;99.90;;;;;;5058923;28;20020;-76
2023/09/20 00:22:41;;;;;;;0.00;0.00;;;17.30;99.90;;;;;;5059030;28;20226;-78
2023/09/20 00:25:29;;;;;;;0.10;0.10;;;17.30;99.90;;;;;;5059037;28;20040;-75
2023/09/20 00:27:55;;;;;;;0.00;0.00;;;17.20;99.90;;;;;;5016398;28;20251;-75
2023/09/20 00:30:21;;;;;;;0.10;0.10;;;17.20;99.90;;;;;;5016280;28;20078;-77
2023/09/20 00:32:47;;;;;;;11.07;3.92;;;17.20;99.90;;;;;;5021971;28;20038;-90
2023/09/20 00:35:17;;;;;;;0.00;0.00;;;17.20;99.90;;;;;;5031530;28;20025;-87
2023/09/20 00:37:47;;;;;;;0.10;0.10;;;17.10;99.90;;;;;;5030957;28;20053;-81
2023/09/20 00:40:20;;;;;;;0.00;0.00;;;17.10;99.90;;;;;;5031505;28;20036;-84
2023/09/20 00:42:51;;;;;;;0.57;0.57;;;17.00;99.90;;;;;;5031352;28;20124;-79
2023/09/20 00:45:18;;;;;;;0.65;0.43;;;17.00;99.90;;;;;;5027809;28;20429;-82
2023/09/20 00:47:47;;;;;;;0.00;0.00;;;16.90;99.90;;;;;;5022230;28;20420;-78
2023/09/20 00:50:14;;;;;;;0.00;0.00;;;16.80;99.90;;;;;;5019599;28;20021;-80
2023/09/20 00:52:46;;;;;;;0.10;0.10;;;16.80;99.90;;;;;;5017328;28;20033;-78
2023/09/20 00:55:22;;;;;;;1.55;0.57;;;16.70;99.90;;;;;;4986206;28;20036;-78
2023/09/20 00:57:52;;;;;;;0.30;0.30;;;16.70;99.90;;;;;;5019982;28;20025;-81
2023/09/20 01:00:21;;;;;;;0.10;0.10;;;18.40;99.90;;;;;;5060316;28;20071;-79
2023/09/20 01:02:57;;;;;;;0.10;0.10;;;16.70;99.90;;;;;;5059770;28;20051;-78
2023/09/20 01:05:27;;;;;;;0.00;0.00;;;16.60;99.90;;;;;;5059862;28;20559;-81
2023/09/20 01:07:56;;;;;;;2.50;1.88;;;16.70;99.90;;;;;;5040421;28;20539;-76
2023/09/20 01:10:27;;;;;;;0.10;0.10;;;16.70;99.90;;;;;;5058926;28;20646;-88
2023/09/20 01:12:54;;;;;;;0.00;0.00;;;16.70;99.90;;;;;;5042288;28;20252;-86
2023/09/20 01:15:21;;;;;;;3.80;3.60;;;16.70;99.90;;;;;;5059042;28;20108;-76
2023/09/20 01:17:49;;;;;;;0.00;0.00;;;16.70;99.90;;;;;;5060768;28;20070;-75
2023/09/20 01:20:18;;;;;;;1.95;1.85;;;16.70;99.90;;;;;;5060578;28;20563;-77
2023/09/20 01:22:45;;;;;;;0.08;0.08;;;16.60;99.90;;;;;;5059199;28;20526;-85
2023/09/20 01:25:18;;;;;;;2.17;1.98;;;16.60;99.90;;;;;;5058893;28;20036;-76
2023/09/20 01:27:45;;;;;;;0.45;0.45;;;16.60;99.90;;;;;;5059210;28;20036;-77
2023/09/20 01:30:11;;;;;;;0.00;0.00;;;16.60;99.90;;;;;;5059735;28;20539;-81
2023/09/20 01:32:37;;;;;;;0.30;0.30;;;16.60;99.90;;;;;;5059283;28;20020;-78
2023/09/20 01:35:04;;;;;;;0.15;0.15;;;16.50;99.90;;;;;;5059483;28;20425;-82
2023/09/20 01:37:31;;;;;;;6.50;3.13;;;16.60;99.90;;;;;;5060147;28;20029;-79
2023/09/20 01:39:57;;;;;;;0.00;0.00;;;16.50;99.90;;;;;;5060262;28;20564;-76
2023/09/20 01:42:23;;;;;;;1.38;1.33;;;16.50;99.90;;;;;;5041103;28;20040;-79
2023/09/20 01:44:49;;;;;;;0.32;0.32;;;16.50;99.90;;;;;;5059569;28;20054;-80
2023/09/20 01:47:15;;;;;;;0.00;0.00;;;16.20;99.90;;;;;;5041017;28;20352;-76
2023/09/20 01:49:42;;;;;;;0.32;0.32;;;16.60;99.90;;;;;;5062106;28;20115;-79
2023/09/20 01:52:09;;;;;;;0.00;0.00;;;16.60;99.90;;;;;;5066585;28;20016;-82
2023/09/20 01:54:35;;;;;;;0.20;0.20;;;16.60;99.90;;;;;;5065321;28;20028;-76
2023/09/20 01:57:01;;;;;;;0.17;0.17;;;16.60;99.90;;;;;;5064801;28;20023;-81
2023/09/20 01:59:26;;;;;;;0.10;0.10;;;16.60;99.90;;;;;;5067481;28;20024;-81
2023/09/20 02:01:52;;;;;;;1.42;1.42;;;16.60;99.90;;;;;;5047145;28;20497;-76
2023/09/20 02:04:20;;;;;;;0.00;0.00;;;16.50;99.90;;;;;;5066088;28;20054;-81
2023/09/20 02:06:47;;;;;;;0.10;0.10;;;19.00;99.90;;;;;;5066280;28;20470;-77
2023/09/20 02:09:14;;;;;;;0.00;0.00;;;16.50;99.90;;;;;;5065646;28;20103;-78
2023/09/20 02:11:40;;;;;;;0.00;0.00;;;16.50;99.90;;;;;;5065385;28;20016;-76
2023/09/20 02:14:06;;;;;;;47.95;5.88;;;16.40;99.90;;;;;;5065454;28;20027;-81
2023/09/20 02:16:32;;;;;;;0.32;0.32;;;16.40;99.90;;;;;;5065525;28;20025;-83
2023/09/20 02:18:58;;;;;;;0.00;0.00;;;16.40;99.90;;;;;;5067187;28;20039;-81
2023/09/20 02:21:24;;;;;;;0.20;0.20;;;16.40;99.90;;;;;;5032576;28;20020;-75
2023/09/20 02:23:54;;;;;;;0.08;0.08;;;14.00;99.90;;;;;;5048732;28;20678;-75
2023/09/20 02:26:20;;;;;;;0.20;0.20;;;16.30;99.90;;;;;;5067031;28;20111;-77
2023/09/20 02:28:46;;;;;;;0.10;0.10;;;16.30;99.90;;;;;;5065856;28;20075;-74
2023/09/20 02:31:12;;;;;;;0.00;0.00;;;16.20;99.90;;;;;;5066236;28;20309;-75
2023/09/20 02:33:38;;;;;;;0.10;0.10;;;16.60;99.90;;;;;;5066703;28;20020;-75
2023/09/20 02:36:05;;;;;;;0.08;0.08;;;16.00;99.90;;;;;;5047879;28;20032;-75
2023/09/20 02:38:33;;;;;;;0.10;0.10;;;;;;;;;;5066368;28;20380;-75
2023/09/20 02:40:59;;;;;;;0.00;0.00;;;15.90;99.90;;;;;;5048202;28;20116;-76
2023/09/20 02:43:29;;;;;;;0.17;0.17;;;16.50;99.90;;;;;;5066065;28;20463;-76
2023/09/20 02:45:59;;;;;;;0.00;0.00;;;15.80;99.90;;;;;;5066596;28;20023;-75
2023/09/20 02:48:26;;;;;;;0.00;0.00;;;15.70;99.90;;;;;;5048567;28;20309;-78
2023/09/20 02:50:53;;;;;;;0.00;0.00;;;15.50;99.90;;;;;;5066413;28;20088;-78
2023/09/20 02:53:19;;;;;;;0.03;0.03;;;15.70;99.90;;;;;;5066154;28;20670;-78
2023/09/20 02:55:45;;;;;;;0.00;0.00;;;15.70;99.90;;;;;;5066576;28;20056;-78
2023/09/20 02:58:13;;;;;;;0.00;0.00;;;15.70;99.90;;;;;;5066248;28;20060;-78
2023/09/20 03:00:46;;;;;;;0.00;0.00;;;;;;;;;;5045769;28;20112;-80
2023/09/20 03:03:16;;;;;;;0.00;0.00;;;15.80;99.90;;;;;;5062976;28;20020;-80
2023/09/20 03:05:42;;;;;;;0.10;0.10;;;16.90;99.90;;;;;;5078478;28;20032;-78
2023/09/20 03:08:14;;;;;;;3.60;3.30;;;15.80;99.90;;;;;;5043753;28;20332;-80
2023/09/20 03:10:43;;;;;;;0.00;0.00;;;15.80;99.90;;;;;;5063867;28;20093;-79
2023/09/20 03:13:11;;;;;;;0.35;0.35;;;15.70;99.90;;;;;;5061444;28;20210;-77
2023/09/20 03:15:43;;;;;;;0.10;0.10;;;15.80;99.90;;;;;;5061431;28;20036;-81
2023/09/20 03:18:11;;;;;;;2.95;1.13;;;15.80;99.90;;;;;;5028851;28;20078;-81
2023/09/20 03:20:38;;;;;;;0.10;0.10;;;15.80;99.90;;;;;;5044932;28;20021;-76
2023/09/20 03:23:05;;;;;;;0.85;0.85;;;15.80;99.90;;;;;;5045271;28;20055;-78
2023/09/20 03:25:38;;;;;;;0.63;0.63;;;15.70;99.90;;;;;;5044717;28;20025;-79
2023/09/20 03:28:08;;;;;;;0.00;0.00;;;15.70;99.90;;;;;;5062173;28;20052;-77
2023/09/20 03:30:36;;;;;;;0.05;0.05;;;15.70;99.90;;;;;;5063237;28;20040;-77
2023/09/20 03:33:02;;;;;;;3.17;2.88;;;15.60;99.90;;;;;;5063812;28;20035;-76
2023/09/20 03:35:28;;;;;;;1.08;1.08;;;15.60;99.90;;;;;;5062974;28;20070;-77
2023/09/20 03:37:54;;;;;;;0.00;0.00;;;15.50;99.90;;;;;;5044664;28;20548;-77
2023/09/20 03:40:21;;;;;;;0.00;0.00;;;15.50;99.90;;;;;;5062382;28;20031;-76
2023/09/20 03:42:48;;;;;;;0.10;0.10;;;15.60;99.90;;;;;;5062548;28;20194;-82
2023/09/20 03:45:16;;;;;;;0.10;0.10;;;15.50;99.90;;;;;;5061275;28;20257;-80
2023/09/20 03:47:54;;;;;;;0.03;0.03;;;15.60;99.90;;;;;;5043586;28;20075;-76
2023/09/20 03:50:21;;;;;;;0.10;0.10;;;15.60;99.90;;;;;;5043806;28;20676;-76
2023/09/20 03:52:47;;;;;;;0.05;0.05;;;15.70;99.90;;;;;;5062066;28;20024;-77
2023/09/20 03:55:14;;;;;;;0.10;0.10;;;15.70;99.90;;;;;;5061873;28;20043;-75
2023/09/20 03:57:40;;;;;;;0.15;0.15;;;15.70;99.90;;;;;;5042220;28;20025;-84
2023/09/20 04:00:11;;;;;;;0.10;0.10;;;15.80;99.90;;;;;;5060591;28;20029;-80
2023/09/20 04:02:38;;;;;;;0.10;0.10;;;15.90;99.90;;;;;;5042116;28;20024;-81
2023/09/20 04:05:10;;;;;;;0.10;0.10;;;15.90;99.90;;;;;;5059689;28;20654;-76
2023/09/20 04:07:37;;;;;;;11.23;2.33;;;15.90;99.90;;;;;;5041913;28;20052;-79
2023/09/20 04:10:03;;;;;;;0.20;0.20;;;15.90;99.90;;;;;;5041293;28;20035;-79
2023/09/20 04:12:29;;;;;;;0.10;0.10;;;15.90;99.90;;;;;;5059342;28;20023;-77
2023/09/20 04:14:55;;;;;;;0.30;0.30;;;15.90;99.90;;;;;;5059736;28;20259;-81
2023/09/20 04:17:21;;;;;;;0.10;0.10;;;16.00;99.90;;;;;;5058796;28;20420;-82
2023/09/20 04:19:47;;;;;;;7.78;3.63;;;15.90;99.90;;;;;;5059283;28;20321;-76
2023/09/20 04:22:14;;;;;;;0.00;0.00;;;15.90;99.90;;;;;;5059621;28;20560;-77
2023/09/20 04:24:39;;;;;;;0.10;0.10;;;15.90;99.90;;;;;;5059336;28;20043;-77
2023/09/20 04:27:05;;;;;;;0.10;0.10;;;15.80;99.90;;;;;;5059464;28;20032;-77
2023/09/20 04:29:31;;;;;;;0.98;0.98;;;15.70;99.90;;;;;;5059485;28;20040;-76
2023/09/20 04:31:58;;;;;;;0.10;0.10;;;16.20;99.90;;;;;;5059658;28;20526;-79
2023/09/20 04:34:24;;;;;;;0.00;0.00;;;15.70;99.90;;;;;;5041071;28;20310;-78
2023/09/20 04:36:52;;;;;;;0.10;0.10;;;16.20;99.90;;;;;;5040791;28;20036;-80
2023/09/20 04:39:23;;;;;;;0.00;0.00;;;14.60;99.90;;;;;;5058971;28;20425;-78
2023/09/20 04:41:50;;;;;;;0.15;0.15;;;15.60;99.90;;;;;;5058768;28;20360;-81
2023/09/20 04:44:16;;;;;;;0.10;0.10;;;15.50;99.90;;;;;;5059075;28;20297;-77
2023/09/20 04:46:43;;;;;;;0.10;0.10;;;15.50;99.90;;;;;;5058508;28;20021;-77
2023/09/20 04:49:10;;;;;;;0.43;0.35;;;15.40;99.90;;;;;;5059174;28;20028;-78
2023/09/20 04:51:37;;;;;;;0.10;0.10;;;15.30;99.90;;;;;;5060647;28;20044;-76
2023/09/20 04:54:05;;;;;;;0.10;0.10;;;15.90;99.90;;;;;;5061020;28;20199;-77
2023/09/20 04:56:31;;;;;;;0.10;0.10;;;15.30;99.90;;;;;;5061220;28;20250;-79
2023/09/20 04:58:57;;;;;;;0.52;0.52;;;15.30;99.90;;;;;;5061098;28;20028;-76
2023/09/20 05:01:26;;;;;;;0.10;0.10;;;15.20;99.90;;;;;;5062274;28;20245;-80
2023/09/20 05:03:52;;;;;;;7.97;3.92;;;15.30;99.90;;;;;;5060443;28;20105;-78
2023/09/20 05:06:18;;;;;;;0.10;0.10;;;15.30;99.90;;;;;;5061342;28;20028;-76
2023/09/20 05:08:44;;;;;;;0.10;0.10;;;15.30;99.90;;;;;;5059912;28;20024;-79
2023/09/20 05:11:10;;;;;;;0.00;0.00;;;15.30;99.90;;;;;;5074377;28;20029;-76
2023/09/20 05:13:40;;;;;;;0.05;0.05;;;15.30;99.90;;;;;;5059353;28;20042;-79
2023/09/20 05:16:07;;;;;;;0.00;0.00;;;15.30;99.90;;;;;;5058697;28;20621;-75
2023/09/20 05:18:32;;;;;;;1.85;1.75;;;15.30;99.90;;;;;;5057929;28;20024;-77
2023/09/20 05:20:59;;;;;;;0.10;0.10;;;15.30;99.90;;;;;;5040354;28;20399;-84
2023/09/20 05:23:25;;;;;;;1.27;1.27;;;15.40;99.90;;;;;;5057916;28;20094;-76
2023/09/20 05:25:52;;;;;;;0.65;0.65;;;15.40;99.90;;;;;;5058127;28;20021;-77
2023/09/20 05:28:18;;;;;;;0.20;0.20;;;15.40;99.90;;;;;;5057995;28;20229;-86
2023/09/20 05:30:44;;;;;;;0.10;0.10;;;15.50;99.90;;;;;;5058325;28;20027;-76
2023/09/20 05:33:14;;;;;;;0.10;0.10;;;15.50;99.90;;;;;;5040263;28;20074;-77
2023/09/20 05:35:40;;;;;;;0.10;0.10;;;15.50;99.90;;;;;;5039668;28;20048;-76
2023/09/20 05:38:07;;;;;;;0.00;0.00;;;15.60;99.90;;;;;;5039356;28;20043;-76
2023/09/20 05:40:34;;;;;;;9.27;8.75;;;15.60;99.90;;;;;;5057738;28;20082;-76
2023/09/20 05:43:03;;;;;;;0.00;0.00;;;15.60;99.90;;;;;;5057380;28;20309;-82
2023/09/20 05:45:30;;;;;;;0.00;0.00;;;15.60;99.90;;;;;;5057175;28;20036;-77
2023/09/20 05:47:57;;;;;;;0.00;0.00;;;15.70;99.90;;;;;;5057166;28;20017;-78
2023/09/20 05:50:23;;;;;;;0.10;0.10;;;15.70;99.90;;;;;;5040468;28;20086;-79
2023/09/20 05:52:52;;;;;;;0.10;0.10;;;15.80;99.90;;;;;;5059108;28;20021;-79
2023/09/20 05:55:18;;;;;;;0.00;0.00;;;15.90;99.90;;;;;;5040407;28;20016;-80
2023/09/20 05:57:45;;;;;;;0.00;0.00;;;15.90;99.90;;;;;;5058169;28;20108;-76
2023/09/20 06:00:22;;;;;;;0.00;0.00;;;16.00;99.90;;;;;;5057895;28;20017;-75
2023/09/20 06:02:51;;;;;;;0.05;0.05;;;16.10;99.90;;;;;;5040066;28;20021;-76
2023/09/20 06:05:24;;;;;;;3.70;3.47;;;17.90;99.90;;;;;;5041235;28;20036;-77
2023/09/20 06:07:53;;;;;;;0.00;0.00;;;16.40;99.90;;;;;;5040336;28;20116;-76
2023/09/20 06:10:22;;;;;;;0.10;0.10;;;16.60;99.90;;;;;;5040377;28;20040;-78
2023/09/20 06:12:50;;;;;;;0.13;0.13;;;14.90;99.90;;;;;;5058083;28;20021;-77
2023/09/20 06:15:16;;;;;;;0.10;0.10;;;;;;;;;;5057718;28;20032;-76
2023/09/20 06:17:43;;;;;;;0.63;0.63;;;16.90;99.90;;;;;;5057977;28;20293;-76
2023/09/20 06:20:18;;;;;;;0.03;0.03;;;17.10;99.90;;;;;;5031760;28;20020;-76
2023/09/20 06:22:46;;;;;;;0.10;0.10;;;17.20;99.90;;;;;;5059316;28;20024;-77
2023/09/20 06:25:13;;;;;;;0.10;0.10;;;17.30;99.90;;;;;;5040628;28;20121;-76
2023/09/20 06:27:39;;;;;;;0.00;0.00;;;17.30;99.90;;;;;;5073934;28;20095;-77
2023/09/20 06:30:12;;;;;;;0.00;0.00;;;18.10;99.90;;;;;;5058644;28;20023;-77
2023/09/20 06:32:38;;;;;;;0.00;0.00;;;17.40;99.90;;;;;;5058901;28;20078;-80
2023/09/20 06:35:05;;;;;;;0.20;0.20;;;17.70;99.90;;;;;;5040349;28;20121;-76
2023/09/20 06:37:33;;;;;;;5.22;2.22;;;17.70;99.90;;;;;;5042281;28;20028;-77
2023/09/20 06:40:00;;;;;;;0.75;0.75;;;18.00;99.90;;;;;;5075556;28;20032;-76
2023/09/20 06:42:29;;;;;;;0.28;0.28;;;18.00;99.90;;;;;;5042059;28;20024;-76
2023/09/20 06:44:55;;;;;;;0.00;0.00;;;18.70;99.90;;;;;;5042433;28;20032;-77
2023/09/20 06:47:22;;;;;;;0.10;0.10;;;18.20;99.90;;;;;;5042266;28;20531;-77
2023/09/20 06:49:48;;;;;;;0.63;0.63;;;18.30;99.90;;;;;;5042062;28;20421;-76
2023/09/20 06:52:14;;;;;;;3.30;3.13;;;18.50;99.90;;;;;;5076389;28;20022;-77
2023/09/20 06:54:40;;;;;;;0.52;0.52;;;18.60;99.90;;;;;;5063157;28;20092;-77
2023/09/20 06:57:06;;;;;;;0.00;0.00;;;18.70;99.90;;;;;;5042829;28;20400;-77
2023/09/20 06:59:33;;;;;;;0.55;0.55;;;18.80;99.90;;;;;;5060759;28;20042;-83
2023/09/20 07:02:00;;;;;;;0.80;0.52;;;18.90;99.90;;;;;;5060180;28;20021;-76
2023/09/20 07:04:26;;;;;;;0.13;0.13;;;19.00;99.90;;;;;;5042261;28;20028;-76
2023/09/20 07:06:55;;;;;;;0.00;0.00;;;19.10;99.90;;;;;;5061771;28;20059;-77
2023/09/20 07:09:22;;;;;;;5.80;5.50;;;19.20;99.90;;;;;;5062377;28;20027;-78
2023/09/20 07:11:51;;;;;;;0.10;0.10;;;19.30;99.90;;;;;;5044584;28;20023;-75
2023/09/20 07:14:20;;;;;;;0.10;0.10;;;20.50;99.90;;;;;;5062323;28;20032;-77
2023/09/20 07:16:51;;;;;;;0.00;0.00;;;19.30;99.90;;;;;;5044153;28;20047;-78
2023/09/20 07:19:18;;;;;;;0.30;0.30;;;19.50;99.90;;;;;;5063024;28;20094;-76
2023/09/20 07:21:48;;;;;;;0.25;0.25;;;19.70;99.90;;;;;;5044687;28;20016;-79
2023/09/20 07:24:14;;;;;;;0.10;0.10;;;19.70;99.90;;;;;;5062592;28;20060;-78
2023/09/20 07:26:43;;;;;;;0.82;0.73;;;19.90;99.90;;;;;;5062031;28;20029;-77
2023/09/20 07:29:13;;;;;;;0.00;0.00;;;20.10;99.90;;;;;;5060681;28;20162;-77
2023/09/20 07:31:39;;;;;;;0.20;0.20;;;20.20;99.90;;;;;;5061817;28;20025;-79
2023/09/20 07:34:07;;;;;;;2.60;1.27;;;20.30;99.90;;;;;;5061832;28;20021;-78
2023/09/20 07:36:36;;;;;;;1.35;1.25;;;20.50;99.90;;;;;;5060721;28;20083;-78
2023/09/20 07:39:08;;;;;;;0.20;0.20;;;20.50;99.90;;;;;;5061459;28;20110;-77
2023/09/20 07:41:35;;;;;;;0.00;0.00;;;20.70;99.90;;;;;;5045089;28;20103;-77
2023/09/20 07:44:00;;;;;;;0.00;0.00;;;20.90;99.90;;;;;;5044218;28;20032;-77
2023/09/20 07:46:26;;;;;;;0.00;0.00;;;20.90;99.90;;;;;;5076191;28;20071;-77
2023/09/20 07:48:52;;;;;;;2.80;2.60;;;21.00;99.90;;;;;;5061900;28;20517;-79
2023/09/20 07:51:25;;;;;;;0.20;0.20;;;21.10;99.90;;;;;;5063748;28;20576;-77
2023/09/20 07:53:54;;;;;;;0.65;0.65;;;21.00;99.90;;;;;;5061639;28;20044;-77
2023/09/20 07:56:21;;;;;;;0.20;0.20;;;20.90;99.90;;;;;;5061963;28;20493;-77
2023/09/20 07:58:47;;;;;;;0.10;0.10;;;21.00;99.90;;;;;;5042340;28;20031;-77
2023/09/20 08:01:19;;;;;;;0.45;0.45;;;21.20;99.90;;;;;;5044024;28;20032;-76
2023/09/20 08:03:50;;;;;;;0.45;0.45;;;21.30;99.90;;;;;;5061031;28;20027;-76
2023/09/20 08:06:17;;;;;;;0.00;0.00;;;21.20;99.90;;;;;;5062535;28;20056;-76
2023/09/20 08:08:43;;;;;;;0.00;0.00;;;21.50;99.90;;;;;;5062106;28;20012;-79
2023/09/20 08:11:09;;;;;;;0.10;0.10;;;21.60;99.90;;;;;;5061248;28;20032;-78
2023/09/20 08:13:35;;;;;;;0.00;0.00;;;21.70;99.90;;;;;;5060718;28;20027;-78
2023/09/20 08:16:02;;;;;;;8.45;1.52;;;21.70;99.90;;;;;;5060621;28;20024;-77
2023/09/20 08:21:13;;;;;;;0.20;0.20;;;23.70;99.90;;;;;;5059567;28;20079;-77
2023/09/20 08:59:53;;;;;;;0.55;0.55;;;23.60;99.90;;;;;;5045562;28;20043;-79
2023/09/20 09:02:24;;;;;;;0.00;0.00;;;23.80;99.90;;;;;;5060017;28;20039;-78
2023/09/20 09:04:53;;;;;;;0.17;0.17;;;23.90;99.90;;;;;;5059977;28;20462;-80
2023/09/20 09:07:23;;;;;;;0.00;0.00;;;23.80;99.90;;;;;;5057907;28;20021;-76
2023/09/20 09:09:49;;;;;;;0.00;0.00;;;24.00;99.90;;;;;;5040027;28;20025;-75
2023/09/20 09:12:16;;;;;;;0.13;0.13;;;24.00;99.90;;;;;;5040836;28;20013;-76
2023/09/20 09:14:42;;;;;;;0.20;0.20;;;23.80;99.90;;;;;;5058063;28;20035;-75
2023/09/20 09:17:10;;;;;;;0.00;0.00;;;23.90;99.90;;;;;;5072883;28;20024;-76
2023/09/20 09:19:40;;;;;;;0.10;0.10;;;24.00;99.90;;;;;;5039377;28;20048;-76
2023/09/20 09:22:07;;;;;;;0.50;0.30;;;24.10;99.90;;;;;;5041981;28;20631;-88
2023/09/20 09:24:46;;;;;;;0.65;0.32;;;24.10;99.90;;;;;;5060505;28;20113;-76
2023/09/20 09:27:12;;;;;;;0.30;0.30;;;24.30;99.90;;;;;;5059782;28;20289;-76
2023/09/20 09:29:39;;;;;;;0.82;0.75;;;24.50;99.90;;;;;;5041445;28;20414;-77
2023/09/20 09:32:05;;;;;;;0.57;0.57;;;24.60;99.90;;;;;;5059430;28;20032;-78
2023/09/20 09:34:32;;;;;;;0.95;0.80;;;24.70;99.90;;;;;;5041708;28;20331;-77
2023/09/20 09:36:57;;;;;;;0.05;0.05;;;24.70;99.90;;;;;;5059052;28;20048;-77
2023/09/20 09:39:25;;;;;;;0.68;0.65;;;24.90;99.90;;;;;;5041060;28;20105;-79
2023/09/20 09:41:52;;;;;;;0.47;0.47;;;22.50;99.90;;;;;;5047247;28;20034;-82
2023/09/20 09:44:20;;;;;;;0.30;0.30;;;24.90;99.90;;;;;;5065510;28;20052;-82
2023/09/20 09:46:45;;;;;;;0.47;0.40;;;25.10;99.90;;;;;;5065331;28;20016;-83
2023/09/20 09:49:12;;;;;;;0.88;0.88;;;25.30;99.90;;;;;;5061038;28;20468;-83
2023/09/20 09:51:51;;;;;;;0.32;0.32;;;25.30;99.90;;;;;;5059235;28;20052;-77
2023/09/20 09:54:18;;;;;;;0.60;0.57;;;25.30;99.90;;;;;;5041336;28;20537;-76
2023/09/20 09:56:44;;;;;;;0.40;0.20;;;25.40;99.90;;;;;;5057140;28;20221;-77
2023/09/20 09:59:10;;;;;;;0.00;0.00;;;25.30;99.90;;;;;;5057231;28;20401;-76
2023/09/20 10:01:40;;;;;;;1.02;1.02;;;25.40;99.90;;;;;;5057291;28;20051;-76
2023/09/20 10:04:10;;;;;;;0.00;0.00;;;25.30;99.90;;;;;;5057314;28;20025;-77
2023/09/20 10:06:56;;;;;;;0.65;0.55;;;25.40;99.90;;;;;;5057413;28;20287;-78
2023/09/20 10:09:27;;;;;;;0.00;0.00;;;25.60;99.90;;;;;;5058277;28;20021;-77
2023/09/20 10:11:53;;;;;;;0.52;0.52;;;25.70;99.90;;;;;;5061078;28;20118;-76
2023/09/20 10:14:22;;;;;;;3.95;1.05;;;25.80;99.90;;;;;;5043715;28;20031;-78
2023/09/20 10:16:49;;;;;;;0.08;0.05;;;26.00;99.90;;;;;;5061372;28;20043;-78
2023/09/20 10:19:16;;;;;;;0.00;0.00;;;26.00;99.90;;;;;;5061410;28;20306;-77
2023/09/20 10:22:08;;;;;;;2.83;2.63;;;26.30;99.90;;;;;;5061760;28;20021;-79
2023/09/20 10:24:58;;;;;;;0.08;0.08;;;26.30;99.90;;;;;;5060929;28;20033;-77
2023/09/20 10:27:30;;;;;;;0.65;0.65;;;26.30;99.90;;;;;;5059923;28;20087;-76
2023/09/20 10:29:59;;;;;;;0.00;0.00;;;26.50;99.90;;;;;;5061337;28;20029;-76
2023/09/20 10:32:31;;;;;;;0.55;0.55;;;26.60;99.90;;;;;;5061428;28;20514;-76
2023/09/20 10:35:27;;;;;;;0.35;0.20;;;26.90;99.90;;;;;;5061331;28;20024;-76
2023/09/20 10:38:07;;;;;;;0.05;0.05;;;27.00;99.90;;;;;;5061865;28;20220;-77
2023/09/20 10:40:55;;;;;;;0.08;0.08;;;27.00;99.90;;;;;;5061521;28;20020;-80
2023/09/20 10:43:36;;;;;;;0.17;0.17;;;26.90;99.90;;;;;;5063719;28;20020;-80
2023/09/20 10:46:07;;;;;;;2.47;1.55;;;27.30;99.90;;;;;;5062113;28;20127;-79
2023/09/20 10:48:34;;;;;;;0.38;0.38;;;27.50;99.90;;;;;;5061737;28;20189;-81
2023/09/20 10:51:03;;;;;;;1.55;0.85;;;27.50;99.90;;;;;;5061323;28;20395;-76
2023/09/20 10:53:44;;;;;;;0.00;0.00;;;27.80;99.90;;;;;;5060445;28;20021;-77
2023/09/20 10:56:30;;;;;;;0.63;0.63;;;28.10;99.90;;;;;;5064042;28;20056;-78
2023/09/20 10:58:59;;;;;;;0.30;0.30;;;28.20;99.70;;;;;;5062928;28;20514;-76
2023/09/20 11:01:25;;;;;;;2.13;2.03;;;28.30;99.30;;;;;;5062751;28;20071;-76
2023/09/20 11:03:52;;;;;;;0.10;0.10;;;28.30;98.80;;;;;;5062259;28;20317;-75
2023/09/20 11:06:18;;;;;;;0.65;0.35;;;28.60;98.60;;;;;;5062836;28;20016;-76
2023/09/20 11:08:44;;;;;;;0.03;0.03;;;28.70;98.30;;;;;;5062320;28;20021;-80
2023/09/20 11:11:15;;;;;;;0.45;0.17;;;28.90;97.70;;;;;;5062123;28;20078;-76
2023/09/20 11:13:46;;;;;;;0.60;0.60;;;29.10;96.90;;;;;;5061270;28;20029;-76
2023/09/20 11:16:13;;;;;;;0.17;0.17;;;29.00;96.40;;;;;;5061078;28;20107;-76
2023/09/20 11:18:42;;;;;;;0.00;0.00;;;29.10;96.40;;;;;;5062413;28;20031;-78
2023/09/20 11:21:08;;;;;;;0.88;0.63;;;29.40;95.90;;;;;;5060783;28;20074;-81
2023/09/20 11:23:34;;;;;;;0.85;0.47;;;29.50;93.90;;;;;;5059704;28;20169;-78
2023/09/20 11:26:00;;;;;;;0.05;0.05;;;29.60;93.90;;;;;;5075810;28;20039;-78
2023/09/20 11:28:27;;;;;;;0.43;0.22;;;29.80;93.50;;;;;;5060179;28;20037;-82
2023/09/20 11:30:53;;;;;;;7.85;7.38;;;29.80;92.80;;;;;;5060938;28;20029;-76
2023/09/20 11:33:31;;;;;;;0.13;0.13;;;26.50;91.20;;;;;;5060185;28;20067;-76
2023/09/20 11:35:58;;;;;;;0.38;0.22;;;29.50;93.40;;;;;;5061310;28;20025;-79
2023/09/20 11:38:23;;;;;;;0.00;0.00;;;30.30;93.60;;;;;;5060418;28;20017;-76
2023/09/20 11:40:50;;;;;;;0.60;0.38;;;29.60;92.60;;;;;;5060660;28;20095;-76
2023/09/20 11:43:22;;;;;;;0.20;0.20;;;24.90;90.20;;;;;;5060114;28;20024;-76
2023/09/20 11:45:49;;;;;;;0.22;0.15;;;30.00;91.10;;;;;;5060997;28;20306;-77
2023/09/20 11:48:16;;;;;;;0.00;0.00;;;29.90;90.90;;;;;;5062214;28;20220;-80
2023/09/20 11:50:45;;;;;;;1.20;1.10;;;30.40;90.00;;;;;;5062531;28;20071;-78
2023/09/20 11:53:15;;;;;;;0.00;0.00;;;30.30;89.00;;;;;;5062761;28;20013;-76
2023/09/20 11:55:45;;;;;;;0.47;0.32;;;30.40;88.50;;;;;;5063807;28;20287;-76
2023/09/20 11:58:11;;;;;;;4.63;0.50;;;30.40;87.80;;;;;;5059818;28;20021;-79
2023/09/20 12:00:40;;;;;;;0.05;0.05;;;27.80;85.20;;;;;;5042196;28;20044;-79
2023/09/20 12:03:06;;;;;;;0.00;0.00;;;30.90;87.80;;;;;;5059352;28;20009;-84
2023/09/20 12:05:33;;;;;;;0.10;0.10;;;31.30;86.30;;;;;;5061494;28;20025;-79
2023/09/20 12:08:00;;;;;;;0.00;0.00;;;31.40;86.10;;;;;;5059326;28;20017;-76
2023/09/20 12:10:28;;;;;;;0.47;0.20;;;31.00;84.10;;;;;;5059980;28;20025;-76
2023/09/20 12:12:54;;;;;;;0.17;0.17;;;30.90;84.60;;;;;;5058936;28;20401;-77
2023/09/20 12:15:23;;;;;;;0.17;0.17;;;30.90;83.90;;;;;;5059182;28;20501;-77
2023/09/20 12:17:55;;;;;;;0.35;0.35;;;31.00;83.40;;;;;;5059995;28;20309;-83
2023/09/20 12:20:24;;;;;;;1.58;0.88;;;31.00;83.90;;;;;;5059303;28;20024;-77
2023/09/20 12:22:51;;;;;;;0.00;0.00;;;31.10;83.60;;;;;;5060695;28;20410;-83
2023/09/20 12:25:17;;;;;;;0.00;0.00;;;31.00;83.30;;;;;;5042935;28;20040;-77
2023/09/20 12:27:44;;;;;;;2.42;1.13;;;31.20;79.90;;;;;;5061290;28;20041;-78
2023/09/20 12:30:12;;;;;;;0.32;0.25;;;31.30;78.70;;;;;;5059554;28;20104;-76
2023/09/20 12:32:41;;;;;;;1.13;0.80;;;31.20;77.00;;;;;;5059644;28;20663;-78
2023/09/20 12:35:11;;;;;;;0.45;0.45;;;31.40;77.10;;;;;;5062013;28;20566;-76
2023/09/20 12:37:37;;;;;;;0.88;0.57;;;31.10;75.40;;;;;;5058448;28;20029;-76
2023/09/20 12:40:08;;;;;;;0.68;0.63;;;31.60;76.90;;;;;;5059147;28;20082;-77
2023/09/20 12:42:35;;;;;;;0.10;0.10;;;31.80;75.70;;;;;;5059492;28;20025;-76
2023/09/20 12:45:04;;;;;;;0.35;0.35;;;32.00;73.70;;;;;;5059733;28;20036;-76
2023/09/20 12:47:35;;;;;;;0.20;0.17;;;32.10;74.90;;;;;;5058908;28;20171;-77
2023/09/20 12:50:03;;;;;;;0.00;0.00;;;32.20;72.70;;;;;;5058100;28;20032;-75
2023/09/20 12:52:28;;;;;;;2.40;1.38;;;31.80;72.70;;;;;;5040631;28;20123;-76
2023/09/20 12:54:58;;;;;;;0.10;0.10;;;31.90;73.30;;;;;;5058190;28;20554;-77
2023/09/20 12:57:25;;;;;;;0.00;0.00;;;31.90;73.00;;;;;;5058291;28;20021;-78
2023/09/20 12:59:54;;;;;;;1.45;1.35;;;32.30;71.90;;;;;;5057928;28;20025;-79
2023/09/20 13:02:27;;;;;;;7.65;0.65;;;32.50;72.00;;;;;;5057405;28;20325;-76
2023/09/20 13:04:55;;;;;;;0.28;0.28;;;31.90;70.30;;;;;;5040699;28;20032;-76
2023/09/20 13:07:21;;;;;;;0.85;0.30;;;33.30;71.70;;;;;;5058751;28;20564;-75
2023/09/20 13:09:47;;;;;;;0.68;0.47;;;32.90;70.30;;;;;;5059574;28;20086;-78
2023/09/20 13:12:15;;;;;;;4.75;1.55;;;32.90;70.90;;;;;;5060189;28;20029;-76
2023/09/20 13:14:42;;;;;;;1.95;0.47;;;33.20;71.40;;;;;;5058095;28;20477;-76
2023/09/20 13:17:09;;;;;;;0.47;0.47;;;33.40;71.00;;;;;;5058067;28;20024;-76
2023/09/20 13:19:34;;;;;;;0.25;0.25;;;33.30;69.40;;;;;;5039240;28;20038;-76
2023/09/20 13:22:01;;;;;;;4.53;3.30;;;33.10;70.40;;;;;;5058317;28;20294;-76
2023/09/20 13:24:27;;;;;;;0.10;0.10;;;33.30;71.50;;;;;;5058319;28;20027;-76
2023/09/20 13:26:53;;;;;;;0.43;0.38;;;;;;;;;;5058081;28;20233;-76
2023/09/20 13:29:19;;;;;;;0.00;0.00;;;34.10;69.40;;;;;;5058319;28;20327;-77
2023/09/20 13:31:47;;;;;;;1.55;1.45;;;34.50;69.10;;;;;;5057725;28;20534;-76